Time;durP1;ratioP1;P1;durP2;ratioP2;P2;SDS_P1;SDS_P2;PMS_P1;PMS_P2;Temp;Humidity;BMP_temperature;BMP_pressure;BME280_temperature;BME280_humidity;BME280_pressure;Samples;Min_cycle;Max_cycle;Signal;HPM_P1;HPM_P2
2022/11/02 00:00:40;;;;;;;69.85;36.00;;;16.40;95.90;;;;;;4977253;28;20034;-77
2022/11/02 00:03:06;;;;;;;157.38;40.65;;;16.40;95.90;;;;;;4991655;28;20034;-85
2022/11/02 00:05:31;;;;;;;153.95;38.55;;;16.30;96.20;;;;;;4993474;28;20041;-85
2022/11/02 00:07:57;;;;;;;80.10;33.90;;;16.20;96.20;;;;;;4985984;28;20030;-78
2022/11/02 00:10:24;;;;;;;127.88;36.92;;;16.30;96.20;;;;;;4989591;28;20037;-79
2022/11/02 00:12:50;;;;;;;84.95;30.45;;;16.30;96.20;;;;;;4991903;28;20256;-77
2022/11/02 00:15:16;;;;;;;69.07;27.83;;;16.30;96.20;;;;;;4992212;28;20108;-77
2022/11/02 00:17:46;;;;;;;155.25;37.55;;;16.30;96.10;;;;;;4993594;28;20122;-79
2022/11/02 00:20:15;;;;;;;164.43;35.38;;;16.20;96.30;;;;;;4993863;28;20034;-78
2022/11/02 00:22:43;;;;;;;193.88;34.45;;;16.10;96.60;;;;;;4992482;28;20087;-79
2022/11/02 00:25:13;;;;;;;72.95;25.92;;;16.00;96.60;;;;;;4994960;28;20096;-78
2022/11/02 00:27:41;;;;;;;34.03;25.50;;;16.10;96.50;;;;;;4989615;28;20034;-78
2022/11/02 00:30:07;;;;;;;64.32;28.30;;;16.10;96.50;;;;;;4994352;28;20038;-78
2022/11/02 00:32:33;;;;;;;58.70;28.20;;;16.10;96.40;;;;;;4992115;28;20580;-78
2022/11/02 00:34:59;;;;;;;166.13;34.53;;;16.20;96.50;;;;;;4993809;28;20038;-77
2022/11/02 00:37:25;;;;;;;51.83;28.98;;;16.20;96.50;;;;;;4993063;28;20030;-77
2022/11/02 00:39:51;;;;;;;47.53;32.35;;;16.30;96.50;;;;;;4995565;28;20053;-78
2022/11/02 00:42:16;;;;;;;37.42;29.80;;;16.30;96.50;;;;;;4994270;28;20022;-78
2022/11/02 00:44:42;;;;;;;34.72;27.83;;;16.40;96.50;;;;;;4994225;28;20036;-78
2022/11/02 00:47:08;;;;;;;38.70;30.13;;;16.50;96.40;;;;;;4995296;28;20359;-78
2022/11/02 00:49:33;;;;;;;34.22;27.85;;;16.50;96.40;;;;;;4993520;28;20538;-78
2022/11/02 00:51:59;;;;;;;34.38;28.92;;;16.60;96.30;;;;;;4994561;28;20030;-78
2022/11/02 00:54:25;;;;;;;36.92;30.00;;;16.60;96.30;;;;;;4993171;28;20034;-78
2022/11/02 00:56:50;;;;;;;58.08;30.92;;;16.70;96.20;;;;;;4994383;28;20022;-78
2022/11/02 00:59:16;;;;;;;44.78;32.67;;;16.70;96.00;;;;;;4987079;28;20038;-78
2022/11/02 01:01:46;;;;;;;55.33;31.02;;;16.70;96.00;;;;;;4990980;28;20447;-79
2022/11/02 01:04:16;;;;;;;67.88;33.45;;;16.70;96.00;;;;;;4994416;28;20034;-79
2022/11/02 01:06:42;;;;;;;95.43;38.35;;;16.70;96.10;;;;;;4990311;28;20026;-79
2022/11/02 01:09:09;;;;;;;47.20;34.78;;;16.70;96.20;;;;;;4991702;28;20529;-78
2022/11/02 01:11:35;;;;;;;49.53;33.88;;;16.70;96.20;;;;;;4994258;28;20084;-79
2022/11/02 01:14:00;;;;;;;45.20;35.55;;;16.70;96.10;;;;;;4994463;28;20034;-78
2022/11/02 01:16:26;;;;;;;47.30;35.45;;;16.80;96.30;;;;;;4994410;28;20245;-79
2022/11/02 01:18:53;;;;;;;57.13;37.67;;;16.70;96.30;;;;;;4993833;28;20062;-78
2022/11/02 01:21:20;;;;;;;106.22;39.13;;;16.80;96.30;;;;;;4994398;28;20026;-78
2022/11/02 01:23:45;;;;;;;55.65;37.58;;;16.80;96.30;;;;;;4994310;28;20137;-78
2022/11/02 01:26:11;;;;;;;167.10;42.60;;;16.80;96.40;;;;;;4994289;28;20113;-78
2022/11/02 01:28:38;;;;;;;196.70;44.00;;;16.80;96.40;;;;;;4987676;28;20034;-78
2022/11/02 01:31:05;;;;;;;67.40;38.17;;;16.70;96.60;;;;;;4994245;28;20042;-78
2022/11/02 01:33:31;;;;;;;191.77;46.92;;;16.70;96.60;;;;;;4985000;28;20041;-77
2022/11/02 01:35:57;;;;;;;167.70;46.33;;;16.70;96.70;;;;;;4994254;28;20038;-77
2022/11/02 01:38:23;;;;;;;272.20;54.88;;;16.60;96.90;;;;;;4993363;28;20031;-77
2022/11/02 01:40:49;;;;;;;192.48;45.90;;;16.50;97.10;;;;;;4994300;28;20356;-77
2022/11/02 01:43:26;;;;;;;67.70;40.35;;;16.50;97.50;;;;;;4991677;28;20039;-77
2022/11/02 01:46:04;;;;;;;66.38;41.80;;;16.50;97.40;;;;;;4994447;28;20022;-78
2022/11/02 01:48:46;;;;;;;59.08;41.20;;;16.50;97.40;;;;;;4992448;28;20399;-78
2022/11/02 01:51:19;;;;;;;56.50;39.80;;;16.60;97.50;;;;;;4994134;28;20352;-78
2022/11/02 01:53:48;;;;;;;62.67;43.65;;;16.70;97.50;;;;;;4993026;28;20530;-77
2022/11/02 01:56:19;;;;;;;65.93;43.47;;;16.70;97.40;;;;;;4994303;28;20464;-78
2022/11/02 01:58:50;;;;;;;63.83;43.45;;;16.80;97.40;;;;;;4986619;28;20034;-78
2022/11/02 02:01:15;;;;;;;68.10;42.28;;;16.90;97.60;;;;;;4994154;28;20031;-78
2022/11/02 02:03:42;;;;;;;132.70;47.15;;;16.90;97.30;;;;;;4993238;28;20041;-78
2022/11/02 02:06:13;;;;;;;76.82;45.60;;;17.00;97.20;;;;;;4993772;28;20042;-77
2022/11/02 02:08:43;;;;;;;85.57;43.63;;;17.00;97.20;;;;;;5004447;28;20026;-77
2022/11/02 02:11:26;;;;;;;64.70;43.17;;;17.00;97.30;;;;;;4992338;28;20034;-78
2022/11/02 02:13:57;;;;;;;66.60;41.50;;;16.90;97.20;;;;;;4994219;28;20038;-78
2022/11/02 02:16:47;;;;;;;60.58;41.72;;;16.90;97.20;;;;;;4988707;28;20090;-78
2022/11/02 02:19:44;;;;;;;67.07;44.85;;;16.90;97.30;;;;;;4993092;28;20026;-78
2022/11/02 02:22:56;;;;;;;63.15;42.67;;;16.90;97.40;;;;;;4989288;28;20042;-78
2022/11/02 02:25:40;;;;;;;63.00;40.88;;;17.00;97.40;;;;;;4978498;28;20031;-78
2022/11/02 02:28:25;;;;;;;66.18;44.35;;;17.00;97.40;;;;;;4992201;28;20041;-78
2022/11/02 02:31:01;;;;;;;200.63;57.65;;;17.00;97.40;;;;;;4992800;28;20042;-78
2022/11/02 02:33:42;;;;;;;93.47;45.53;;;16.90;97.40;;;;;;4991270;28;20030;-78
2022/11/02 02:36:20;;;;;;;78.32;44.05;;;16.80;97.70;;;;;;4993369;28;20041;-78
2022/11/02 02:38:56;;;;;;;73.05;46.33;;;16.80;97.60;;;;;;4978862;28;20601;-78
2022/11/02 02:41:54;;;;;;;68.60;44.25;;;16.80;97.70;;;;;;4992082;28;20027;-77
2022/11/02 02:44:22;;;;;;;213.93;57.78;;;16.90;97.80;;;;;;4974346;28;20037;-78
2022/11/02 02:46:54;;;;;;;78.53;47.10;;;16.90;97.70;;;;;;4991163;28;20463;-77
2022/11/02 02:49:49;;;;;;;90.43;48.30;;;16.90;97.80;;;;;;4980866;28;20049;-78
2022/11/02 02:52:17;;;;;;;77.82;48.25;;;16.90;97.80;;;;;;4989775;28;20026;-78
2022/11/02 02:54:45;;;;;;;74.75;48.65;;;16.90;97.90;;;;;;4993796;28;20034;-79
2022/11/02 02:57:16;;;;;;;79.95;50.03;;;17.00;97.90;;;;;;4996354;28;20030;-78
2022/11/02 02:59:44;;;;;;;79.63;48.13;;;17.10;97.90;;;;;;4993880;28;20026;-78
2022/11/02 03:02:17;;;;;;;78.30;48.53;;;17.10;97.80;;;;;;4991322;28;20026;-78
2022/11/02 03:04:43;;;;;;;78.30;48.25;;;17.20;97.80;;;;;;4993361;28;20034;-78
2022/11/02 03:07:11;;;;;;;76.28;48.28;;;17.20;97.90;;;;;;4988595;28;20035;-78
2022/11/02 03:09:50;;;;;;;80.15;48.78;;;17.20;97.60;;;;;;4992774;28;20045;-79
2022/11/02 03:12:33;;;;;;;76.72;49.50;;;17.30;97.50;;;;;;4992330;28;20026;-78
2022/11/02 03:14:59;;;;;;;92.30;48.50;;;17.30;97.50;;;;;;4992986;28;20028;-78
2022/11/02 03:17:31;;;;;;;122.40;51.13;;;17.30;97.40;;;;;;4992255;28;20471;-78
2022/11/02 03:20:15;;;;;;;74.93;48.08;;;17.30;97.30;;;;;;4991324;28;20054;-78
2022/11/02 03:22:47;;;;;;;85.22;46.00;;;17.30;97.30;;;;;;4990814;28;20463;-78
2022/11/02 03:25:18;;;;;;;78.05;47.75;;;17.20;97.30;;;;;;4990763;28;20029;-77
2022/11/02 03:28:23;;;;;;;74.00;46.70;;;17.20;97.40;;;;;;4990812;28;20030;-77
2022/11/02 03:31:02;;;;;;;78.18;47.63;;;17.20;97.50;;;;;;4964948;28;20078;-78
2022/11/02 03:33:56;;;;;;;79.82;48.65;;;17.30;97.50;;;;;;4994442;28;20069;-78
2022/11/02 03:36:31;;;;;;;72.22;44.28;;;17.30;97.50;;;;;;4977013;28;20031;-77
2022/11/02 03:39:07;;;;;;;73.82;45.10;;;17.30;97.50;;;;;;4994285;28;20036;-78
2022/11/02 03:41:35;;;;;;;74.07;47.33;;;17.30;97.40;;;;;;4993834;28;20138;-78
2022/11/02 03:44:15;;;;;;;105.15;48.42;;;17.30;97.40;;;;;;4996721;28;20034;-78
2022/11/02 03:46:43;;;;;;;69.32;42.65;;;17.30;97.30;;;;;;4996020;28;20030;-78
2022/11/02 03:49:13;;;;;;;77.63;48.47;;;17.20;97.20;;;;;;4995348;28;20109;-79
2022/11/02 03:51:44;;;;;;;83.53;48.53;;;17.20;97.40;;;;;;4995487;28;20086;-77
2022/11/02 03:54:24;;;;;;;;;;;17.20;97.40;;;;;;4996068;28;20038;-76
2022/11/02 03:56:54;;;;;;;95.53;49.38;;;17.20;97.40;;;;;;4991565;28;19913;-77
2022/11/02 03:59:19;;;;;;;83.80;47.27;;;17.20;97.50;;;;;;4990132;28;20026;-77
2022/11/02 04:01:48;;;;;;;94.88;51.20;;;17.20;97.50;;;;;;4995183;28;20471;-77
2022/11/02 04:04:14;;;;;;;93.32;52.55;;;17.10;97.60;;;;;;4995259;28;20434;-77
2022/11/02 04:06:41;;;;;;;94.90;52.47;;;17.20;97.70;;;;;;4995100;28;20035;-77
2022/11/02 04:09:07;;;;;;;94.80;55.15;;;17.20;97.60;;;;;;4995462;28;20038;-79
2022/11/02 04:14:37;;;;;;;92.53;52.50;;;17.30;97.70;;;;;;4976887;28;20046;-79
2022/11/02 04:19:56;;;;;;;87.78;50.50;;;17.30;97.60;;;;;;4995449;28;20133;-79
2022/11/02 04:25:15;;;;;;;94.57;54.20;;;17.30;97.60;;;;;;4995718;28;20390;-79
2022/11/02 04:27:41;;;;;;;91.63;53.80;;;17.20;97.70;;;;;;4994431;28;20031;-79
2022/11/02 04:30:09;;;;;;;102.20;55.97;;;17.20;98.00;;;;;;4994548;28;20069;-79
2022/11/02 04:35:28;;;;;;;90.97;51.45;;;17.30;97.80;;;;;;4981285;28;20061;-86
2022/11/02 04:40:38;;;;;;;100.55;56.38;;;17.30;97.80;;;;;;4989117;28;20053;-86
2022/11/02 04:43:04;;;;;;;96.32;53.30;;;17.30;97.80;;;;;;4988767;28;20022;-85
2022/11/02 04:45:29;;;;;;;94.85;54.70;;;17.40;97.60;;;;;;4995599;28;20030;-85
2022/11/02 04:48:03;;;;;;;93.78;51.90;;;17.40;97.60;;;;;;4993300;28;20391;-85
2022/11/02 04:50:29;;;;;;;99.07;55.92;;;17.40;97.60;;;;;;4994482;28;20038;-84
2022/11/02 04:53:00;;;;;;;98.47;54.88;;;17.40;97.60;;;;;;4994991;28;20518;-84
2022/11/02 04:55:27;;;;;;;94.22;54.35;;;17.50;97.50;;;;;;4995314;28;20034;-84
2022/11/02 04:57:53;;;;;;;91.82;54.45;;;17.50;97.50;;;;;;4994377;28;20026;-84
2022/11/02 05:00:19;;;;;;;98.50;55.78;;;17.50;97.40;;;;;;4993636;28;20036;-88
2022/11/02 05:02:46;;;;;;;97.57;55.38;;;17.50;97.30;;;;;;4994716;28;20109;-87
2022/11/02 05:05:12;;;;;;;91.70;54.33;;;17.60;97.30;;;;;;4979178;28;20050;-87
2022/11/02 05:07:38;;;;;;;96.30;55.28;;;17.60;97.20;;;;;;4991686;28;20116;-87
2022/11/02 05:10:04;;;;;;;95.55;55.90;;;17.60;97.20;;;;;;4995270;28;20108;-87
2022/11/02 05:12:30;;;;;;;92.82;54.17;;;17.60;97.20;;;;;;4989485;28;20468;-88
2022/11/02 05:14:56;;;;;;;103.15;56.25;;;17.60;97.20;;;;;;4995682;28;20114;-87
2022/11/02 05:17:22;;;;;;;90.13;53.13;;;17.50;97.10;;;;;;4994714;28;20034;-87
2022/11/02 05:19:48;;;;;;;99.32;56.92;;;17.50;97.10;;;;;;4994512;28;20473;-87
2022/11/02 05:22:13;;;;;;;91.05;53.00;;;17.50;97.20;;;;;;4993469;28;20061;-87
2022/11/02 05:24:39;;;;;;;86.10;50.70;;;17.50;97.00;;;;;;5000678;28;20050;-86
2022/11/02 05:27:05;;;;;;;93.70;54.63;;;17.50;97.00;;;;;;4994014;28;20036;-87
2022/11/02 05:29:30;;;;;;;93.10;54.65;;;17.50;97.10;;;;;;4993333;28;20027;-87
2022/11/02 05:31:56;;;;;;;92.57;53.58;;;17.50;97.20;;;;;;4994354;28;20084;-88
2022/11/02 05:34:22;;;;;;;94.25;53.60;;;17.50;97.00;;;;;;4991368;28;20402;-88
2022/11/02 05:36:48;;;;;;;86.70;51.55;;;17.50;97.00;;;;;;4994363;28;20031;-88
2022/11/02 05:39:14;;;;;;;85.22;51.05;;;17.50;97.10;;;;;;4990424;28;20030;-89
2022/11/02 05:41:40;;;;;;;91.57;53.13;;;17.50;97.00;;;;;;5003971;28;20684;-90
2022/11/02 05:44:05;;;;;;;91.22;53.15;;;17.50;97.00;;;;;;4995057;28;20026;-90
2022/11/02 05:46:32;;;;;;;92.05;52.65;;;17.50;97.00;;;;;;4993282;28;20037;-90
2022/11/02 05:48:58;;;;;;;105.20;54.22;;;17.50;97.00;;;;;;5010831;28;20026;-90
2022/11/02 05:51:23;;;;;;;88.47;50.88;;;17.50;97.00;;;;;;4993004;28;20498;-89
2022/11/02 05:53:49;;;;;;;86.82;51.28;;;17.40;97.10;;;;;;4992761;28;20022;-89
2022/11/02 05:56:15;;;;;;;82.32;50.60;;;17.40;97.10;;;;;;4993511;28;20467;-88
2022/11/02 05:58:41;;;;;;;90.57;52.60;;;17.40;97.20;;;;;;4991807;28;20022;-86
2022/11/02 06:01:09;;;;;;;86.43;51.53;;;17.40;97.10;;;;;;4993899;28;20034;-90
2022/11/02 06:03:35;;;;;;;93.25;54.25;;;17.50;97.10;;;;;;4993374;28;20101;-89
2022/11/02 06:06:05;;;;;;;92.20;54.30;;;17.50;97.00;;;;;;4983821;28;20387;-89
2022/11/02 06:08:32;;;;;;;89.28;51.72;;;17.40;97.00;;;;;;4992495;28;20595;-89
2022/11/02 06:11:02;;;;;;;96.10;52.38;;;17.40;97.10;;;;;;4993357;28;20084;-87
2022/11/02 06:13:28;;;;;;;82.82;48.95;;;17.40;97.10;;;;;;4993333;28;20020;-87
2022/11/02 06:15:57;;;;;;;91.20;50.67;;;17.40;97.10;;;;;;4993459;28;20109;-87
2022/11/02 06:18:22;;;;;;;91.50;53.50;;;17.50;97.10;;;;;;4993764;28;20112;-87
2022/11/02 06:21:01;;;;;;;83.13;49.42;;;17.50;97.10;;;;;;4993938;28;20478;-88
2022/11/02 06:23:27;;;;;;;81.65;48.15;;;17.50;97.00;;;;;;4990607;28;20150;-85
2022/11/02 06:25:55;;;;;;;87.50;50.80;;;17.50;96.90;;;;;;4993441;28;20663;-89
2022/11/02 06:28:21;;;;;;;89.93;50.85;;;17.50;97.00;;;;;;4989715;28;20046;-80
2022/11/02 06:30:48;;;;;;;99.30;57.90;;;17.50;97.00;;;;;;4990950;28;20061;-79
2022/11/02 06:33:15;;;;;;;88.00;51.97;;;17.50;97.00;;;;;;4992786;28;20057;-80
2022/11/02 06:35:49;;;;;;;90.90;52.92;;;17.40;97.00;;;;;;4991783;28;20030;-80
2022/11/02 06:38:16;;;;;;;78.28;47.03;;;17.40;97.10;;;;;;4993209;28;20038;-81
2022/11/02 06:40:41;;;;;;;87.03;51.60;;;17.40;97.10;;;;;;4992547;28;20030;-79
2022/11/02 06:43:07;;;;;;;96.45;55.25;;;17.40;97.20;;;;;;4988232;28;20127;-78
2022/11/02 06:45:33;;;;;;;77.00;45.45;;;17.30;97.20;;;;;;5001454;28;20039;-77
2022/11/02 06:47:59;;;;;;;93.20;49.40;;;17.30;97.20;;;;;;4978049;28;20034;-84
2022/11/02 06:50:25;;;;;;;84.85;48.00;;;17.30;97.30;;;;;;4981354;28;20027;-78
2022/11/02 06:52:51;;;;;;;81.05;49.45;;;17.30;97.40;;;;;;4981382;28;20038;-85
2022/11/02 06:55:17;;;;;;;79.47;47.40;;;17.40;97.60;;;;;;4988332;28;20030;-85
2022/11/02 06:57:44;;;;;;;84.38;50.28;;;17.40;97.30;;;;;;4993073;28;20463;-85
2022/11/02 07:00:16;;;;;;;80.15;48.70;;;17.40;97.30;;;;;;4992207;28;20023;-85
2022/11/02 07:02:43;;;;;;;88.53;51.63;;;17.40;97.30;;;;;;4994594;28;20422;-76
2022/11/02 07:05:09;;;;;;;71.30;44.95;;;17.50;97.20;;;;;;4991358;28;20026;-79
2022/11/02 07:07:34;;;;;;;82.88;50.25;;;17.50;97.50;;;;;;4992195;28;20035;-82
2022/11/02 07:10:00;;;;;;;79.22;48.25;;;17.50;97.40;;;;;;4997098;28;20105;-79
2022/11/02 07:12:26;;;;;;;82.63;50.83;;;17.50;97.20;;;;;;4998163;28;20042;-79
2022/11/02 07:14:51;;;;;;;81.35;47.65;;;17.50;97.20;;;;;;4994737;28;20460;-78
2022/11/02 07:17:17;;;;;;;86.18;49.70;;;17.60;97.20;;;;;;4994188;28;20030;-80
2022/11/02 07:19:43;;;;;;;77.63;46.72;;;17.60;97.20;;;;;;4986329;28;20034;-82
2022/11/02 07:22:09;;;;;;;75.32;46.03;;;17.60;97.10;;;;;;4973190;28;20027;-77
2022/11/02 07:24:35;;;;;;;73.85;44.50;;;17.60;97.10;;;;;;4988613;28;20108;-75
2022/11/02 07:27:01;;;;;;;69.28;43.22;;;17.70;97.20;;;;;;4983597;28;20071;-82
2022/11/02 07:29:27;;;;;;;67.70;42.92;;;17.70;97.10;;;;;;4988281;28;20108;-82
2022/11/02 07:31:52;;;;;;;74.38;45.20;;;17.80;97.00;;;;;;4983277;28;20058;-77
2022/11/02 07:34:18;;;;;;;72.32;47.22;;;17.90;97.10;;;;;;4985118;28;20045;-75
2022/11/02 07:36:44;;;;;;;72.03;46.25;;;17.90;97.00;;;;;;4988634;28;20042;-79
2022/11/02 07:39:10;;;;;;;69.75;43.72;;;17.90;96.80;;;;;;4989218;28;20019;-81
2022/11/02 07:41:37;;;;;;;73.18;46.78;;;18.00;96.80;;;;;;4974691;28;20066;-88
2022/11/02 07:44:03;;;;;;;76.43;48.47;;;18.00;96.80;;;;;;4978833;28;20390;-76
2022/11/02 07:46:29;;;;;;;74.88;47.60;;;18.10;96.80;;;;;;4985738;28;20488;-80
2022/11/02 07:48:55;;;;;;;76.18;47.30;;;18.00;96.50;;;;;;4987815;28;20494;-76
2022/11/02 07:51:21;;;;;;;73.88;46.10;;;18.00;96.60;;;;;;4981827;28;20042;-78
2022/11/02 07:53:47;;;;;;;78.40;47.00;;;18.00;96.60;;;;;;4989595;28;20038;-75
2022/11/02 07:56:13;;;;;;;71.10;44.40;;;18.10;96.70;;;;;;4983040;28;20046;-83
2022/11/02 07:58:38;;;;;;;92.18;53.42;;;18.10;96.60;;;;;;4987153;28;20121;-78
2022/11/02 08:01:04;;;;;;;83.38;48.13;;;18.10;96.50;;;;;;4988131;28;20030;-74
2022/11/02 08:03:30;;;;;;;73.32;45.28;;;18.20;96.50;;;;;;4992252;28;20463;-74
2022/11/02 08:05:55;;;;;;;72.43;44.53;;;18.20;96.80;;;;;;4986755;28;20034;-79
2022/11/02 08:08:22;;;;;;;105.35;59.80;;;18.30;96.50;;;;;;4982861;28;20029;-80
2022/11/02 08:10:50;;;;;;;80.97;47.92;;;18.20;95.70;;;;;;4987461;28;20153;-78
2022/11/02 08:13:19;;;;;;;67.43;40.60;;;18.30;95.80;;;;;;4979255;28;20038;-78
2022/11/02 08:15:49;;;;;;;91.25;53.28;;;18.40;96.10;;;;;;4988392;28;20031;-78
2022/11/02 08:18:16;;;;;;;;;;;18.60;95.40;;;;;;4994321;28;20080;-79
2022/11/02 08:20:42;;;;;;;72.30;42.20;;;18.70;95.60;;;;;;4994548;28;19909;-77
2022/11/02 08:23:09;;;;;;;94.05;53.65;;;18.80;95.00;;;;;;4995726;28;20403;-80
2022/11/02 08:25:35;;;;;;;78.32;47.42;;;18.90;94.80;;;;;;4995701;28;20054;-79
2022/11/02 08:28:02;;;;;;;99.75;56.95;;;19.00;94.80;;;;;;4994206;28;20066;-82
2022/11/02 08:30:29;;;;;;;85.93;50.67;;;18.90;93.80;;;;;;4994123;28;20088;-80
2022/11/02 08:32:55;;;;;;;74.80;45.70;;;19.00;94.00;;;;;;4975287;28;20070;-80
2022/11/02 08:35:21;;;;;;;72.82;44.30;;;19.00;94.20;;;;;;4986998;28;20081;-80
2022/11/02 08:37:58;;;;;;;87.63;50.13;;;19.10;94.10;;;;;;4994795;28;20522;-88
2022/11/02 08:40:24;;;;;;;102.65;55.85;;;19.20;93.70;;;;;;5009501;28;20030;-87
2022/11/02 08:42:58;;;;;;;94.25;54.10;;;19.20;93.20;;;;;;4994476;28;20022;-85
2022/11/02 08:45:24;;;;;;;74.45;46.20;;;19.20;92.90;;;;;;5004140;28;20069;-86
2022/11/02 08:47:50;;;;;;;72.72;42.38;;;19.20;93.40;;;;;;4997828;28;20518;-85
2022/11/02 08:50:16;;;;;;;71.57;43.30;;;19.30;93.40;;;;;;5004568;28;20038;-85
2022/11/02 08:52:42;;;;;;;74.25;44.40;;;19.30;93.60;;;;;;5007568;28;20027;-87
2022/11/02 08:55:08;;;;;;;65.97;42.15;;;19.40;93.60;;;;;;5005994;28;20034;-86
2022/11/02 08:57:47;;;;;;;69.50;43.35;;;19.60;93.50;;;;;;5005921;28;20065;-88
2022/11/02 09:00:13;;;;;;;71.07;44.10;;;19.70;93.40;;;;;;5013303;28;20037;-87
2022/11/02 09:02:39;;;;;;;67.32;41.03;;;19.80;93.20;;;;;;5008749;28;20042;-89
2022/11/02 09:05:05;;;;;;;87.00;44.58;;;19.90;93.00;;;;;;5004521;28;20094;-78
2022/11/02 09:07:31;;;;;;;66.55;42.10;;;20.10;92.90;;;;;;4997240;28;20034;-86
2022/11/02 09:09:57;;;;;;;77.90;44.33;;;20.10;92.80;;;;;;4981306;28;20117;-79
2022/11/02 09:12:22;;;;;;;70.88;44.38;;;20.20;92.40;;;;;;4994460;28;20045;-79
2022/11/02 09:14:48;;;;;;;70.18;44.50;;;20.20;92.30;;;;;;4993117;28;20044;-87
2022/11/02 09:17:14;;;;;;;73.75;43.10;;;20.20;92.00;;;;;;4983632;28;20031;-88
2022/11/02 09:19:39;;;;;;;65.25;41.65;;;20.30;92.10;;;;;;4981800;28;20035;-87
2022/11/02 09:22:05;;;;;;;64.63;41.22;;;20.30;92.10;;;;;;4996156;28;20426;-88
2022/11/02 09:24:31;;;;;;;70.13;44.70;;;20.30;91.80;;;;;;4992159;28;20034;-83
2022/11/02 09:26:56;;;;;;;71.05;44.63;;;20.30;91.90;;;;;;4982748;28;20537;-90
2022/11/02 09:29:22;;;;;;;68.78;45.33;;;20.30;91.90;;;;;;4996773;28;20057;-89
2022/11/02 09:31:48;;;;;;;73.78;48.20;;;20.20;92.00;;;;;;4996584;28;20061;-88
2022/11/02 09:34:14;;;;;;;67.68;45.50;;;20.20;92.10;;;;;;4995121;28;20037;-81
2022/11/02 09:36:40;;;;;;;75.60;47.22;;;20.10;92.30;;;;;;4995014;28;20145;-81
2022/11/02 09:39:07;;;;;;;77.07;50.28;;;20.10;92.30;;;;;;4993531;28;20125;-89
2022/11/02 09:41:46;;;;;;;78.60;51.03;;;20.10;92.40;;;;;;4990903;28;20034;-87
2022/11/02 09:44:30;;;;;;;79.47;48.80;;;20.00;92.40;;;;;;4993783;28;20034;-81
2022/11/02 09:46:56;;;;;;;75.25;49.05;;;20.00;92.50;;;;;;4985404;28;20045;-81
2022/11/02 09:49:28;;;;;;;78.22;49.55;;;20.00;92.60;;;;;;4986624;28;20105;-83
2022/11/02 09:51:59;;;;;;;76.40;49.55;;;20.00;92.70;;;;;;4984063;28;20110;-82
2022/11/02 09:54:38;;;;;;;73.95;48.75;;;20.10;92.70;;;;;;4978107;28;20061;-82
2022/11/02 09:57:08;;;;;;;75.53;48.28;;;20.10;92.60;;;;;;4989650;28;20042;-80
2022/11/02 09:59:34;;;;;;;;;;;20.10;92.60;;;;;;4996089;28;20054;-80
2022/11/02 10:02:14;;;;;;;82.22;48.78;;;20.10;92.50;;;;;;4991605;28;20421;-80
2022/11/02 10:05:00;;;;;;;79.78;49.45;;;20.20;92.60;;;;;;4982853;28;20027;-88
2022/11/02 10:07:50;;;;;;;82.10;48.80;;;20.20;92.70;;;;;;5007487;28;20386;-84
2022/11/02 10:11:05;;;;;;;78.22;47.67;;;20.30;92.70;;;;;;5001103;28;20374;-87
2022/11/02 10:13:47;;;;;;;80.43;48.47;;;20.50;92.60;;;;;;4986865;28;20117;-86
2022/11/02 10:16:21;;;;;;;87.40;49.60;;;20.60;92.40;;;;;;4993419;28;20044;-80
2022/11/02 10:18:50;;;;;;;85.43;49.10;;;20.60;92.20;;;;;;4994231;28;20509;-79
2022/11/02 10:21:22;;;;;;;76.47;49.88;;;20.60;92.00;;;;;;4988562;28;20097;-83
2022/11/02 10:23:54;;;;;;;76.03;47.75;;;20.70;91.90;;;;;;4985731;28;20034;-89
2022/11/02 10:26:29;;;;;;;73.82;47.13;;;20.70;91.90;;;;;;4980735;28;20034;-79
2022/11/02 10:29:11;;;;;;;69.00;44.90;;;20.80;91.70;;;;;;4985773;28;20038;-80
2022/11/02 10:31:36;;;;;;;71.30;45.83;;;20.90;91.50;;;;;;4984166;28;20047;-82
2022/11/02 10:34:32;;;;;;;77.60;45.90;;;21.00;91.40;;;;;;4987974;28;20033;-83
2022/11/02 10:37:14;;;;;;;69.57;43.63;;;21.00;91.20;;;;;;4991013;28;20392;-91
2022/11/02 10:40:02;;;;;;;70.70;44.83;;;21.00;91.00;;;;;;4995687;28;20034;-81
2022/11/02 10:43:01;;;;;;;77.00;45.67;;;21.10;91.00;;;;;;4988218;28;20038;-87
2022/11/02 10:45:37;;;;;;;76.72;45.45;;;21.00;90.80;;;;;;4980746;28;20030;-81
2022/11/02 10:48:18;;;;;;;68.32;43.80;;;21.10;90.70;;;;;;4982913;28;20061;-87
2022/11/02 10:51:09;;;;;;;67.57;44.28;;;21.00;90.70;;;;;;4980598;28;20034;-80
2022/11/02 10:53:58;;;;;;;70.45;44.80;;;21.00;90.70;;;;;;4982581;28;20038;-81
2022/11/02 10:56:33;;;;;;;67.35;42.63;;;21.00;90.60;;;;;;4986046;28;20038;-88
2022/11/02 10:59:01;;;;;;;70.43;43.33;;;21.00;90.60;;;;;;4984415;28;20019;-88
2022/11/02 11:01:28;;;;;;;75.65;45.72;;;21.00;90.70;;;;;;4991358;28;20038;-87
2022/11/02 11:04:02;;;;;;;65.55;44.78;;;20.90;90.70;;;;;;4988308;28;20061;-87
2022/11/02 11:06:37;;;;;;;73.55;45.75;;;21.00;90.80;;;;;;4992303;28;20046;-83
2022/11/02 11:09:06;;;;;;;70.95;44.50;;;21.10;90.70;;;;;;4992406;28;20054;-86
2022/11/02 11:11:36;;;;;;;74.10;43.15;;;21.20;90.60;;;;;;4988715;28;20046;-88
2022/11/02 11:14:17;;;;;;;65.32;43.13;;;21.50;90.60;;;;;;4987058;28;20471;-80
2022/11/02 11:16:52;;;;;;;75.90;46.47;;;21.70;90.20;;;;;;4995250;28;20409;-88
2022/11/02 11:19:40;;;;;;;70.32;44.13;;;21.90;89.80;;;;;;4997423;28;20029;-84
2022/11/02 11:22:38;;;;;;;70.63;43.75;;;22.00;89.40;;;;;;4985884;28;20372;-89
2022/11/02 11:25:12;;;;;;;68.50;42.55;;;22.10;88.90;;;;;;4987301;28;20018;-84
2022/11/02 11:27:48;;;;;;;73.22;45.00;;;22.30;88.60;;;;;;4988591;28;20089;-88
2022/11/02 11:30:36;;;;;;;67.93;43.97;;;22.50;88.20;;;;;;4994246;28;20031;-81
2022/11/02 11:33:05;;;;;;;68.57;43.83;;;22.70;87.00;;;;;;4973155;28;20047;-79
2022/11/02 11:35:37;;;;;;;74.30;45.17;;;22.80;86.40;;;;;;4987564;28;20041;-85
2022/11/02 11:38:07;;;;;;;73.65;45.10;;;22.80;86.00;;;;;;4981301;28;20034;-84
2022/11/02 11:40:39;;;;;;;68.25;45.60;;;22.70;85.50;;;;;;4995071;28;20363;-83
2022/11/02 11:43:11;;;;;;;71.05;46.10;;;22.60;85.40;;;;;;4978665;28;20345;-85
2022/11/02 11:45:37;;;;;;;68.95;45.17;;;22.50;85.70;;;;;;4992427;28;20042;-84
2022/11/02 11:48:31;;;;;;;64.15;42.38;;;22.50;85.90;;;;;;4994066;28;20041;-84
2022/11/02 11:50:59;;;;;;;66.18;42.22;;;22.80;86.10;;;;;;4991070;28;20101;-83
2022/11/02 11:54:03;;;;;;;75.30;46.85;;;23.00;84.80;;;;;;4993321;28;20085;-82
2022/11/02 11:56:30;;;;;;;67.53;40.63;;;23.20;84.50;;;;;;4990397;28;20061;-85
2022/11/02 11:58:56;;;;;;;65.38;42.20;;;23.10;83.80;;;;;;4996849;28;20038;-85
2022/11/02 12:01:22;;;;;;;73.15;44.72;;;22.90;84.00;;;;;;4997760;28;20033;-84
2022/11/02 12:03:55;;;;;;;67.45;45.83;;;22.80;84.30;;;;;;4998188;28;20159;-76
2022/11/02 12:06:49;;;;;;;67.35;45.65;;;22.80;84.50;;;;;;4998151;28;20034;-84
2022/11/02 12:09:45;;;;;;;67.95;43.92;;;22.70;84.60;;;;;;4985363;28;20050;-81
2022/11/02 12:12:30;;;;;;;67.88;43.60;;;22.70;84.60;;;;;;4995693;28;20022;-89
2022/11/02 12:15:21;;;;;;;69.55;42.60;;;22.60;83.90;;;;;;4995499;28;20444;-88
2022/11/02 12:17:52;;;;;;;64.78;40.08;;;22.50;84.60;;;;;;4990058;28;20023;-88
2022/11/02 12:20:59;;;;;;;63.97;42.70;;;22.50;84.70;;;;;;4995949;28;20027;-87
2022/11/02 12:23:58;;;;;;;67.85;43.55;;;22.50;84.70;;;;;;4985601;28;20022;-88
2022/11/02 12:26:46;;;;;;;65.78;42.50;;;22.40;85.00;;;;;;4987002;28;20471;-83
2022/11/02 12:29:31;;;;;;;64.30;41.47;;;22.30;84.80;;;;;;5010683;28;20097;-78
2022/11/02 12:32:09;;;;;;;62.03;41.22;;;22.20;84.70;;;;;;4982957;28;20042;-80
2022/11/02 12:34:57;;;;;;;60.25;40.85;;;22.10;85.00;;;;;;4993230;28;20423;-79
2022/11/02 12:37:41;;;;;;;66.90;41.40;;;22.00;85.50;;;;;;5000520;28;20038;-81
2022/11/02 12:40:24;;;;;;;65.40;40.85;;;22.00;85.70;;;;;;4990042;28;20105;-84
2022/11/02 12:43:23;;;;;;;65.55;40.03;;;22.00;85.90;;;;;;4984786;28;20034;-81
2022/11/02 12:46:09;;;;;;;82.72;52.90;;;22.00;86.00;;;;;;4985637;28;20415;-84
2022/11/02 12:48:52;;;;;;;64.40;40.63;;;21.70;85.20;;;;;;4987301;28;20476;-81
2022/11/02 12:51:27;;;;;;;62.00;38.30;;;21.90;86.00;;;;;;4985633;28;20030;-79
2022/11/02 12:53:57;;;;;;;69.13;44.38;;;22.00;86.10;;;;;;4984309;28;20030;-84
2022/11/02 12:56:30;;;;;;;;;;;22.00;84.40;;;;;;4988000;28;20057;-82
2022/11/02 12:58:55;;;;;;;65.80;39.28;;;21.90;85.20;;;;;;4995182;28;19910;-81
2022/11/02 13:01:34;;;;;;;63.10;40.28;;;21.80;85.50;;;;;;4998329;28;20034;-83
2022/11/02 13:04:15;;;;;;;66.43;41.28;;;21.80;85.80;;;;;;4984629;28;20352;-83